createdAt,value
2022-08-02T00:01:21.847Z,29.33
2022-08-02T00:03:52.099Z,29.36
2022-08-02T00:06:23.444Z,29.38
2022-08-02T00:08:55.327Z,29.40
2022-08-02T00:11:25.899Z,29.44
2022-08-02T00:13:56.047Z,29.47
2022-08-02T00:16:37.979Z,29.51
2022-08-02T00:19:08.988Z,29.53
2022-08-02T00:21:39.340Z,29.56
2022-08-02T00:24:29.812Z,29.58
2022-08-02T00:27:00.027Z,29.65
2022-08-02T00:29:30.641Z,29.70
2022-08-02T00:32:00.956Z,29.75
2022-08-02T00:34:36.215Z,29.75
2022-08-02T00:37:08.759Z,29.79
2022-08-02T00:39:39.459Z,29.80
2022-08-02T00:42:11.630Z,29.86
2022-08-02T00:44:42.097Z,29.88
2022-08-02T00:47:19.034Z,29.95
2022-08-02T00:49:50.148Z,30.01
2022-08-02T00:52:21.401Z,30.05
2022-08-02T00:54:52.626Z,30.11
2022-08-02T00:57:23.858Z,30.14
2022-08-02T00:59:54.411Z,30.16
2022-08-02T01:02:25.213Z,30.17
2022-08-02T01:04:55.535Z,30.20
2022-08-02T01:07:26.008Z,30.25
2022-08-02T01:09:56.888Z,30.33
2022-08-02T01:12:27.335Z,30.37
2022-08-02T01:15:03.469Z,30.44
2022-08-02T01:17:51.619Z,30.51
2022-08-02T01:20:50.977Z,30.56
2022-08-02T01:23:30.572Z,30.62
2022-08-02T01:26:11.247Z,30.69
2022-08-02T01:28:45.273Z,30.75
2022-08-02T01:31:31.740Z,30.79
2022-08-02T01:34:09.878Z,30.84
2022-08-02T01:36:47.811Z,30.88
2022-08-02T01:39:26.820Z,30.94
2022-08-02T01:42:04.447Z,30.94
2022-08-02T01:44:38.890Z,30.97
2022-08-02T01:47:16.144Z,30.96
2022-08-02T01:49:53.553Z,30.97
2022-08-02T01:52:27.490Z,30.98
2022-08-02T01:55:16.094Z,31.00
2022-08-02T01:57:57.758Z,30.99
2022-08-02T02:00:33.840Z,30.97
2022-08-02T02:03:12.358Z,31.05
2022-08-02T02:05:46.150Z,31.10
2022-08-02T02:08:27.070Z,31.14
2022-08-02T02:12:10.134Z,31.19
2022-08-02T02:13:53.080Z,31.20
2022-08-02T02:16:29.095Z,31.23
2022-08-02T02:19:05.563Z,31.25
2022-08-02T02:21:36.659Z,31.32
2022-08-02T02:24:11.679Z,31.43
2022-08-02T02:26:52.426Z,31.50
2022-08-02T02:29:27.654Z,31.49
2022-08-02T02:32:01.068Z,31.50
2022-08-02T02:34:44.681Z,31.54
2022-08-02T02:37:26.099Z,31.51
2022-08-02T02:39:57.342Z,31.50
2022-08-02T02:42:33.413Z,31.53
2022-08-02T02:45:06.626Z,31.56
2022-08-02T02:47:40.861Z,31.61
2022-08-02T02:50:15.327Z,31.63
2022-08-02T02:52:48.695Z,31.62
2022-08-02T02:55:21.078Z,31.62
2022-08-02T02:57:52.904Z,31.63
2022-08-02T03:00:44.197Z,31.64
2022-08-02T03:03:21.291Z,31.70
2022-08-02T03:05:55.123Z,31.76
2022-08-02T03:08:26.086Z,31.78
2022-08-02T03:11:01.113Z,31.80
2022-08-02T03:13:37.469Z,31.87
2022-08-02T03:16:09.619Z,31.95
2022-08-02T03:18:48.712Z,32.02
2022-08-02T03:21:19.723Z,32.05
2022-08-02T03:23:51.453Z,32.04
2022-08-02T03:26:25.999Z,32.10
2022-08-02T03:29:00.297Z,32.15
2022-08-02T03:31:50.841Z,32.20
2022-08-02T03:34:22.912Z,32.20
2022-08-02T03:36:58.420Z,32.22
2022-08-02T03:39:30.828Z,32.29
2022-08-02T03:42:03.131Z,32.32
2022-08-02T03:44:35.756Z,32.31
2022-08-02T03:47:08.047Z,32.31
2022-08-02T03:49:40.152Z,32.33
2022-08-02T03:52:17.467Z,32.33
2022-08-02T03:54:59.775Z,32.34
2022-08-02T03:58:01.170Z,32.38
2022-08-02T04:08:36.410Z,32.37
2022-08-02T04:10:23.037Z,32.42
2022-08-02T04:13:19.294Z,32.49
2022-08-02T04:16:08.702Z,32.59
2022-08-02T04:19:03.247Z,32.64
2022-08-02T04:21:51.620Z,32.70
2022-08-02T04:24:36.856Z,32.73
2022-08-02T04:27:49.056Z,32.76
2022-08-02T04:30:16.500Z,32.78
2022-08-02T04:33:11.501Z,32.80
2022-08-02T04:35:59.872Z,32.83
2022-08-02T04:38:42.217Z,32.85
2022-08-02T04:41:16.111Z,32.86
2022-08-02T04:44:07.568Z,32.86
2022-08-02T04:47:54.417Z,32.93
2022-08-02T04:50:35.918Z,32.99
2022-08-02T04:53:47.380Z,33.02
2022-08-02T04:59:54.673Z,33.15
2022-08-02T05:02:43.969Z,33.20
2022-08-02T05:05:56.248Z,33.25
2022-08-02T05:09:07.606Z,33.29
2022-08-02T05:14:31.387Z,33.37
2022-08-02T05:17:54.719Z,33.43
2022-08-02T05:20:43.858Z,33.47
2022-08-02T05:23:23.986Z,33.50
2022-08-02T05:26:15.739Z,33.50
2022-08-02T05:28:58.301Z,33.51
2022-08-02T05:31:35.225Z,33.49
2022-08-02T05:34:43.357Z,33.51
2022-08-02T05:37:33.006Z,33.48
2022-08-02T05:40:40.744Z,33.44
2022-08-02T05:43:35.022Z,33.47
2022-08-02T05:46:14.243Z,33.47
2022-08-02T05:48:56.621Z,33.49
2022-08-02T05:52:02.131Z,33.48
2022-08-02T05:54:45.050Z,33.51
2022-08-02T05:57:22.682Z,33.49
2022-08-02T06:00:16.097Z,33.47
2022-08-02T06:02:59.368Z,33.50
2022-08-02T06:05:42.352Z,33.51
2022-08-02T06:08:16.564Z,33.48
2022-08-02T06:10:48.603Z,33.46
2022-08-02T06:13:21.065Z,33.44
2022-08-02T06:15:54.994Z,33.47
2022-08-02T06:18:27.137Z,33.49
2022-08-02T06:22:32.444Z,33.52
2022-08-02T06:24:08.921Z,33.59
2022-08-02T06:26:50.259Z,33.62
2022-08-02T06:29:25.959Z,33.61
2022-08-02T06:32:03.150Z,33.63
2022-08-02T06:34:44.571Z,33.59
2022-08-02T06:37:40.458Z,33.65
2022-08-02T06:40:23.832Z,33.65
2022-08-02T06:43:11.666Z,33.64
2022-08-02T06:45:49.615Z,33.58
2022-08-02T06:55:05.406Z,33.49
2022-08-02T06:57:44.868Z,33.50
2022-08-02T07:00:16.050Z,33.52
2022-08-02T07:02:51.602Z,33.57
2022-08-02T07:05:25.661Z,33.65
2022-08-02T07:07:56.439Z,33.71
2022-08-02T07:10:26.742Z,33.74
2022-08-02T07:12:59.940Z,33.79
2022-08-02T07:15:30.969Z,33.84
2022-08-02T07:18:01.535Z,33.86
2022-08-02T07:20:32.263Z,33.89
2022-08-02T07:23:02.769Z,33.92
2022-08-02T07:26:02.444Z,33.94
2022-08-02T07:28:24.777Z,33.94
2022-08-02T07:30:55.400Z,33.95
2022-08-02T07:33:37.884Z,33.98
2022-08-02T07:36:16.867Z,34.02
2022-08-02T07:38:53.357Z,34.03
2022-08-02T07:41:26.799Z,34.01
2022-08-02T07:44:17.413Z,34.02
2022-08-02T07:47:11.158Z,34.05
2022-08-02T07:53:49.872Z,34.11
2022-08-02T07:56:57.509Z,34.14
2022-08-02T08:03:28.044Z,34.13
2022-08-02T08:06:45.732Z,34.09
2022-08-02T08:09:56.256Z,34.04
2022-08-02T08:13:02.670Z,34.05
2022-08-02T08:15:51.857Z,34.09
2022-08-02T08:18:37.436Z,34.10
2022-08-02T08:21:39.787Z,34.12
2022-08-02T08:36:35.639Z,34.01
2022-08-02T08:45:13.657Z,34.06
2022-08-02T08:50:27.142Z,34.04
2022-08-02T09:15:05.540Z,33.71
2022-08-02T09:18:41.514Z,33.76
2022-08-02T09:21:21.588Z,33.78
2022-08-02T09:23:54.701Z,33.82
2022-08-02T09:26:26.539Z,33.82
2022-08-02T09:29:02.701Z,33.83
2022-08-02T09:31:36.743Z,33.81
2022-08-02T09:34:08.031Z,33.78
2022-08-02T09:36:43.775Z,33.82
2022-08-02T09:39:17.021Z,33.83
2022-08-02T09:41:47.934Z,33.83
2022-08-02T09:44:18.548Z,33.80
2022-08-02T09:46:49.362Z,33.78
2022-08-02T09:49:21.374Z,33.75
2022-08-02T09:51:54.764Z,33.73
2022-08-02T09:54:32.636Z,33.69
2022-08-02T09:57:03.930Z,33.66
2022-08-02T09:59:34.070Z,33.64
2022-08-02T10:02:16.829Z,33.63
2022-08-02T10:04:52.515Z,33.60
2022-08-02T10:07:25.637Z,33.59
2022-08-02T10:09:56.977Z,33.58
2022-08-02T10:12:27.802Z,33.54
2022-08-02T10:14:57.907Z,33.52
2022-08-02T10:17:27.403Z,33.50
2022-08-02T10:20:01.706Z,33.45
2022-08-02T10:22:37.486Z,33.45
2022-08-02T10:25:08.432Z,33.40
2022-08-02T10:28:03.866Z,33.37
2022-08-02T10:30:31.851Z,33.35
2022-08-02T10:33:04.971Z,33.33
2022-08-02T10:35:41.318Z,33.29
2022-08-02T10:41:53.971Z,33.21
2022-08-02T10:44:30.605Z,33.17
2022-08-02T10:47:29.649Z,33.13
2022-08-02T10:50:02.492Z,33.09
2022-08-02T10:52:33.160Z,33.04
2022-08-02T10:55:13.440Z,32.99
2022-08-02T10:57:47.007Z,32.94
2022-08-02T11:00:26.748Z,32.89
2022-08-02T11:02:57.090Z,32.80
2022-08-02T11:05:42.684Z,32.79
2022-08-02T11:08:26.466Z,32.75
2022-08-02T11:11:18.630Z,32.70
2022-08-02T11:14:11.487Z,32.64
2022-08-02T11:17:00.612Z,32.60
2022-08-02T11:19:32.040Z,32.56
2022-08-02T11:22:04.333Z,32.50
2022-08-02T11:24:36.138Z,32.48
2022-08-02T11:27:09.271Z,32.44
2022-08-02T11:29:47.926Z,32.39
2022-08-02T11:32:31.272Z,32.36
2022-08-02T11:35:04.957Z,32.31
2022-08-02T11:37:38.475Z,32.28
2022-08-02T11:40:19.135Z,32.26
2022-08-02T11:42:52.023Z,32.22
2022-08-02T11:45:29.963Z,32.18
2022-08-02T11:48:01.874Z,32.10
2022-08-02T11:50:32.998Z,32.11
2022-08-02T11:53:04.270Z,32.05
2022-08-02T11:55:38.901Z,32.03
2022-08-02T11:58:12.950Z,32.00
2022-08-02T12:00:48.400Z,31.94
2022-08-02T12:03:19.927Z,31.94
2022-08-02T12:06:04.790Z,31.91
2022-08-02T12:08:39.814Z,31.87
2022-08-02T12:11:10.738Z,31.83
2022-08-02T12:13:56.597Z,31.82
2022-08-02T12:16:56.108Z,31.79
2022-08-02T12:19:48.920Z,31.77
2022-08-02T12:22:50.218Z,31.74
2022-08-02T12:25:33.590Z,31.71
2022-08-02T12:28:28.944Z,31.69
2022-08-02T12:31:30.217Z,31.64
2022-08-02T12:34:30.086Z,31.62
2022-08-02T12:37:12.087Z,31.59
2022-08-02T12:39:56.731Z,31.56
2022-08-02T12:42:42.650Z,31.52
2022-08-02T12:45:38.402Z,31.50
2022-08-02T12:48:15.636Z,31.47
2022-08-02T12:50:59.087Z,31.45
2022-08-02T12:53:59.091Z,31.45
2022-08-02T13:00:14.733Z,31.37
2022-08-02T13:02:59.002Z,31.35
2022-08-02T13:05:57.067Z,31.32
2022-08-02T13:09:16.128Z,31.29
2022-08-02T13:11:54.670Z,31.27
2022-08-02T13:15:05.560Z,31.24
2022-08-02T13:18:08.360Z,31.21
2022-08-02T13:20:52.381Z,31.19
2022-08-02T13:23:54.311Z,31.17
2022-08-02T13:27:09.684Z,31.16
2022-08-02T13:29:44.404Z,31.14
2022-08-02T13:32:21.957Z,31.11
2022-08-02T13:35:07.335Z,31.09
2022-08-02T13:38:05.525Z,31.09
2022-08-02T13:41:14.641Z,31.06
2022-08-02T13:44:12.339Z,31.04
2022-08-02T13:46:46.224Z,31.03
2022-08-02T13:49:51.033Z,31.03
2022-08-02T13:55:34.101Z,30.99
2022-08-02T13:59:00.651Z,30.94
2022-08-02T14:02:27.522Z,30.92
2022-08-02T14:05:04.776Z,30.90
2022-08-02T14:08:26.160Z,30.90
2022-08-02T14:11:28.107Z,30.87
2022-08-02T14:17:13.386Z,30.82
2022-08-02T14:19:46.260Z,30.82
2022-08-02T14:22:49.379Z,30.79
2022-08-02T14:25:58.922Z,30.76
2022-08-02T14:28:43.828Z,30.76
2022-08-02T14:31:29.629Z,30.77
2022-08-02T14:34:42.407Z,30.77
2022-08-02T14:37:30.430Z,30.74
2022-08-02T14:40:27.924Z,30.72
2022-08-02T14:43:51.962Z,30.71
2022-08-02T14:46:31.429Z,30.69
2022-08-02T14:52:49.708Z,30.66
2022-08-02T14:56:03.057Z,30.67
2022-08-02T14:58:39.395Z,30.61
2022-08-02T15:01:30.406Z,30.62
2022-08-02T15:04:15.938Z,30.64
2022-08-02T15:07:17.565Z,30.65
2022-08-02T15:09:52.061Z,30.64
2022-08-02T15:12:23.233Z,30.64
2022-08-02T15:15:12.889Z,30.61
2022-08-02T15:17:52.798Z,30.61
2022-08-02T15:20:59.646Z,30.58
2022-08-02T15:23:49.169Z,30.51
2022-08-02T15:26:44.327Z,30.52
2022-08-02T15:29:25.250Z,30.51
2022-08-02T15:32:08.504Z,30.48
2022-08-02T15:34:44.822Z,30.46
2022-08-02T15:37:22.887Z,30.45
2022-08-02T15:40:05.615Z,30.43
2022-08-02T15:43:02.969Z,30.41
2022-08-02T15:45:43.423Z,30.36
2022-08-02T15:48:24.266Z,30.33
2022-08-02T15:51:06.451Z,30.27
2022-08-02T15:53:59.721Z,30.26
2022-08-02T15:57:03.997Z,30.23
2022-08-02T16:00:01.938Z,30.19
2022-08-02T16:02:49.805Z,30.16
2022-08-02T16:08:29.258Z,30.12
2022-08-02T16:14:19.646Z,30.05
2022-08-02T16:17:03.548Z,30.04
2022-08-02T16:19:48.666Z,30.00
2022-08-02T16:22:33.810Z,29.99
2022-08-02T16:25:16.944Z,29.96
2022-08-02T16:28:07.391Z,29.96
2022-08-02T16:31:11.084Z,29.93
2022-08-02T16:33:56.528Z,29.92
2022-08-02T16:39:27.829Z,29.91
2022-08-02T16:42:25.448Z,29.91
2022-08-02T16:45:02.169Z,29.88
2022-08-02T16:47:43.770Z,29.88
2022-08-02T16:50:31.027Z,29.86
2022-08-02T16:53:14.416Z,29.83
2022-08-02T16:55:57.214Z,29.83
2022-08-02T16:58:34.683Z,29.81
2022-08-02T17:01:13.482Z,29.80
2022-08-02T17:03:56.180Z,29.79
2022-08-02T17:06:36.026Z,29.77
2022-08-02T17:09:10.320Z,29.78
2022-08-02T17:14:32.543Z,29.76
2022-08-02T17:17:13.347Z,29.75
2022-08-02T17:19:45.385Z,29.74
2022-08-02T17:22:20.632Z,29.73
2022-08-02T17:24:51.751Z,29.73
2022-08-02T17:27:23.065Z,29.72
2022-08-02T17:29:53.766Z,29.70
2022-08-02T17:32:24.618Z,29.68
2022-08-02T17:35:03.755Z,29.66
2022-08-02T17:37:37.523Z,29.64
2022-08-02T17:40:12.911Z,29.64
2022-08-02T17:42:50.358Z,29.63
2022-08-02T17:45:25.263Z,29.62
2022-08-02T17:48:04.812Z,29.60
2022-08-02T17:50:36.500Z,29.57
2022-08-02T17:53:07.427Z,29.60
2022-08-02T17:55:42.451Z,29.58
2022-08-02T17:58:13.428Z,29.56
2022-08-02T18:00:45.107Z,29.56
2022-08-02T18:03:15.985Z,29.55
2022-08-02T18:05:53.512Z,29.52
2022-08-02T18:08:26.256Z,29.50
2022-08-02T18:10:58.271Z,29.49
2022-08-02T18:13:33.109Z,29.45
2022-08-02T18:16:20.890Z,29.44
2022-08-02T18:18:52.819Z,29.42
2022-08-02T18:21:23.431Z,29.40
2022-08-02T18:23:58.490Z,29.38
2022-08-02T18:26:30.367Z,29.36
2022-08-02T18:29:09.703Z,29.35
2022-08-02T18:34:34.176Z,29.32
2022-08-02T18:37:05.142Z,29.31
2022-08-02T18:39:38.634Z,29.30
2022-08-02T18:42:09.161Z,29.29
2022-08-02T18:44:41.210Z,29.29
2022-08-02T18:47:11.785Z,29.27
2022-08-02T18:49:46.559Z,29.23
2022-08-02T18:52:30.991Z,29.25
2022-08-02T18:55:04.355Z,29.21
2022-08-02T18:58:16.820Z,29.20
2022-08-02T19:00:29.352Z,29.18
2022-08-02T19:02:59.536Z,29.18
2022-08-02T19:05:53.699Z,29.17
2022-08-02T19:08:20.400Z,29.15
2022-08-02T19:10:57.438Z,29.12
2022-08-02T19:13:33.781Z,29.11
2022-08-02T19:16:05.679Z,29.07
2022-08-02T19:18:36.290Z,29.02
2022-08-02T19:21:07.418Z,29.02
2022-08-02T19:23:54.488Z,29.02
2022-08-02T19:26:25.919Z,28.99
2022-08-02T19:28:56.302Z,28.99
2022-08-02T19:31:34.650Z,28.99
2022-08-02T19:34:19.189Z,28.93
2022-08-02T19:36:55.344Z,28.96
2022-08-02T19:39:25.411Z,28.96
2022-08-02T19:41:57.050Z,28.91
2022-08-02T19:44:29.492Z,28.93
2022-08-02T19:47:00.039Z,28.91
2022-08-02T19:49:39.470Z,28.89
2022-08-02T19:52:21.682Z,28.89
2022-08-02T19:54:57.875Z,28.88
2022-08-02T19:57:29.738Z,28.88
2022-08-02T20:00:07.617Z,28.87
2022-08-02T20:02:46.580Z,28.86
2022-08-02T20:05:24.187Z,28.84
2022-08-02T20:07:56.981Z,28.85
2022-08-02T20:10:27.878Z,28.83
2022-08-02T20:12:57.928Z,28.83
2022-08-02T20:15:55.689Z,28.83
2022-08-02T20:18:25.400Z,28.80
2022-08-02T20:20:57.111Z,28.78
2022-08-02T20:26:17.465Z,28.75
2022-08-02T20:28:52.735Z,28.72
2022-08-02T20:31:23.045Z,28.70
2022-08-02T20:33:55.866Z,28.73
2022-08-02T20:36:28.360Z,28.70
2022-08-02T20:38:58.471Z,28.68
2022-08-02T20:41:36.975Z,28.69
2022-08-02T20:44:30.785Z,28.68
2022-08-02T20:47:01.394Z,28.69
2022-08-02T20:49:40.782Z,28.66
2022-08-02T20:52:23.107Z,28.67
2022-08-02T20:54:55.083Z,28.66
2022-08-02T20:57:48.406Z,28.63
2022-08-02T21:00:16.449Z,28.59
2022-08-02T21:02:47.411Z,28.62
2022-08-02T21:05:18.535Z,28.61
2022-08-02T21:07:53.552Z,28.61
2022-08-02T21:10:25.280Z,28.60
2022-08-02T21:12:55.345Z,28.60
2022-08-02T21:15:26.587Z,28.59
2022-08-02T21:17:58.959Z,28.58
2022-08-02T21:20:33.541Z,28.55
2022-08-02T21:23:05.165Z,28.50
2022-08-02T21:25:56.760Z,28.55
2022-08-02T21:28:43.483Z,28.55
2022-08-02T21:31:18.340Z,28.56
2022-08-02T21:33:57.355Z,28.53
2022-08-02T21:36:33.909Z,28.55
2022-08-02T21:39:09.501Z,28.57
2022-08-02T21:41:46.651Z,28.56
2022-08-02T21:44:19.364Z,28.53
2022-08-02T21:46:51.729Z,28.54
2022-08-02T21:49:41.134Z,28.54
2022-08-02T21:52:14.775Z,28.55
2022-08-02T21:54:47.260Z,28.55
2022-08-02T21:57:18.742Z,28.57
2022-08-02T21:59:52.809Z,28.59
2022-08-02T22:02:31.016Z,28.60
2022-08-02T22:05:03.254Z,28.61
2022-08-02T22:07:38.148Z,28.57
2022-08-02T22:10:12.422Z,28.63
2022-08-02T22:12:42.807Z,28.64
2022-08-02T22:15:15.611Z,28.65
2022-08-02T22:17:50.863Z,28.66
2022-08-02T22:20:23.628Z,28.68
2022-08-02T22:22:53.980Z,28.70
2022-08-02T22:25:31.399Z,28.72
2022-08-02T22:28:37.983Z,28.73
2022-08-02T22:31:06.015Z,28.77
2022-08-02T22:34:00.378Z,28.80
2022-08-02T22:36:49.725Z,28.84
2022-08-02T22:39:19.800Z,28.87
2022-08-02T22:42:05.768Z,28.88
2022-08-02T22:44:37.582Z,28.91
2022-08-02T22:47:14.550Z,28.92
2022-08-02T22:49:53.115Z,28.93
2022-08-02T22:52:26.106Z,28.94
2022-08-02T22:54:56.380Z,28.94
2022-08-02T22:57:30.801Z,28.94
2022-08-02T22:58:37.238Z,29.77
2022-08-02T22:59:00.084Z,29.36
2022-08-02T22:59:05.946Z,28.78
2022-08-02T23:00:02.358Z,28.94
2022-08-02T23:02:33.171Z,28.94
2022-08-02T23:05:03.597Z,28.96
2022-08-02T23:07:39.024Z,29.02
2022-08-02T23:10:09.812Z,29.05
2022-08-02T23:12:39.884Z,29.08
2022-08-02T23:15:09.607Z,29.12
2022-08-02T23:17:57.633Z,29.14
2022-08-02T23:20:28.244Z,29.20
2022-08-02T23:22:58.465Z,29.21
2022-08-02T23:25:28.634Z,29.26
2022-08-02T23:27:58.715Z,29.30
2022-08-02T23:30:28.721Z,29.31
2022-08-02T23:32:58.714Z,29.32
2022-08-02T23:35:28.771Z,29.32
2022-08-02T23:38:01.118Z,29.34
2022-08-02T23:40:40.642Z,29.31
2022-08-02T23:46:11.943Z,29.40
2022-08-02T23:48:42.045Z,29.43
2022-08-02T23:54:27.559Z,29.42
2022-08-02T23:56:57.790Z,29.47
2022-08-02T23:59:28.304Z,29.47
